.
WxDataArchive / Data Records for 2006-08-03
2006-08-02 August 2006 2006-08-04

Data Records for Thursday, 03 August 2006

Time	Temp	Chill	HIndex	Humid	Dewpt	 Wind 	HiWind	WindDir	Rain 	Barom 
-----	----	-----	------	-----	-----	------	------	-------	-----	----- 
00:00	83.6	83.6	89.3	69	72.3	1	5	248	0.00	29.794 
00:05	83.4	83.4	88.9	69	72.1	2	5	248	0.00	29.794 
00:10	83.6	83.6	89.3	69	72.3	2	6	248	0.00	29.794 
00:15	83.6	83.6	89.3	69	72.3	1	5	248	0.00	29.791 
00:20	83.4	83.4	89.2	70	72.6	1	3	248	0.00	29.791 
00:25	83.2	83.2	88.8	70	72.4	1	5	248	0.00	29.791 
00:30	83.2	83.2	88.8	70	72.4	2	5	248	0.00	29.793 
00:35	83.2	83.2	88.8	70	72.4	1	3	248	0.00	29.793 
00:40	83.0	83.0	88.7	71	72.6	1	3	248	0.00	29.793 
00:45	82.6	82.6	87.8	71	72.2	1	2	248	0.00	29.789 
00:50	82.4	82.4	87.7	72	72.4	0	3	248	0.00	29.789 
00:55	82.2	82.2	87.3	72	72.2	0	3	248	0.00	29.789 
01:00	82.0	82.0	87.1	73	72.5	0	1	248	0.00	29.792 
01:05	81.8	81.8	86.7	73	72.3	0	0	---	0.00	29.792 
01:10	81.8	81.8	86.7	73	72.3	0	0	---	0.00	29.792 
01:15	81.6	81.6	86.3	73	72.1	0	1	248	0.00	29.788 
01:20	81.6	81.6	86.5	74	72.5	0	2	248	0.00	29.788 
01:25	81.6	81.6	86.3	73	72.1	1	3	270	0.00	29.788 
01:30	81.8	81.8	86.7	73	72.3	1	3	248	0.00	29.783 
01:35	81.8	81.8	86.7	73	72.3	0	1	248	0.00	29.783 
01:40	81.6	81.6	86.3	73	72.1	0	1	248	0.00	29.783 
01:45	81.6	81.6	86.5	74	72.5	0	1	248	0.00	29.801 
01:50	81.4	81.4	86.1	74	72.3	0	2	248	0.00	29.801 
01:55	81.4	81.4	86.1	74	72.3	0	2	248	0.00	29.801 
02:00	81.4	81.4	86.1	74	72.3	0	1	248	0.00	29.808 
02:05	81.4	81.4	86.1	74	72.3	1	3	248	0.00	29.808 
02:10	81.4	81.4	86.1	74	72.3	0	1	248	0.00	29.808 
02:15	81.2	81.2	85.7	74	72.1	0	1	248	0.00	29.794 
02:20	81.2	81.2	85.5	73	71.7	1	2	248	0.00	29.794 
02:25	81.1	81.1	85.3	73	71.6	0	2	248	0.00	29.794 
02:30	81.1	81.1	85.3	73	71.6	1	3	248	0.00	29.792 
02:35	81.1	81.1	85.3	73	71.6	0	1	248	0.00	29.792 
02:40	80.9	80.9	85.1	74	71.8	0	1	248	0.00	29.792 
02:45	80.7	80.7	84.7	74	71.6	0	0	---	0.00	29.785 
02:50	80.5	80.5	84.4	74	71.4	0	2	248	0.00	29.785 
02:55	80.3	80.3	84.1	75	71.6	0	2	248	0.00	29.785 
03:00	80.3	80.3	84.1	75	71.6	0	3	248	0.00	29.779 
03:05	80.1	80.1	83.8	75	71.4	0	1	248	0.00	29.779 
03:10	80.1	80.1	83.9	76	71.8	0	1	248	0.00	29.779 
03:15	79.9	79.9	83.5	76	71.6	0	1	248	0.00	29.792 
03:20	79.9	79.9	83.5	76	71.6	0	1	248	0.00	29.792 
03:25	79.9	79.9	83.5	76	71.6	0	1	248	0.00	29.792 
03:30	79.8	79.8	83.4	77	71.9	0	0	---	0.00	29.798 
03:35	79.8	79.8	83.4	77	71.9	0	1	248	0.00	29.798 
03:40	79.8	79.8	83.4	77	71.9	0	1	248	0.00	29.798 
03:45	79.8	79.8	83.4	77	71.9	0	1	248	0.00	29.803 
03:50	79.8	79.8	83.4	77	71.9	0	1	248	0.00	29.803 
03:55	79.6	79.6	83.2	78	72.1	0	1	248	0.00	29.803 
04:00	79.6	79.6	82.8	75	71.0	1	2	338	0.00	29.800 
04:05	79.4	79.4	82.1	71	69.2	1	4	338	0.00	29.800 
04:10	79.2	79.2	81.6	69	68.1	0	2	248	0.00	29.800 
04:15	79.2	79.2	81.6	69	68.1	0	1	248	0.00	29.796 
04:20	79.0	79.0	81.1	66	66.6	0	1	248	0.00	29.796 
04:25	78.8	78.8	80.9	66	66.5	0	1	248	0.00	29.796 
04:30	78.6	78.6	80.7	68	67.1	0	0	---	0.00	29.779 
04:35	78.3	78.3	80.3	68	66.8	0	1	248	0.00	29.779 
04:40	77.9	77.9	79.9	69	66.9	0	0	---	0.00	29.779 
04:45	77.6	77.6	79.5	69	66.6	0	0	---	0.00	29.780 
04:50	77.4	77.4	79.3	70	66.8	0	1	248	0.00	29.780 
04:55	77.0	77.0	78.8	70	66.4	0	0	---	0.00	29.780 
05:00	76.8	76.8	78.5	71	66.7	0	0	---	0.00	29.765 
05:05	76.5	76.5	78.1	73	67.2	0	0	---	0.00	29.765 
05:10	76.0	76.0	77.5	73	66.7	0	0	---	0.00	29.765 
05:15	75.8	75.8	77.2	74	66.9	0	0	---	0.00	29.765 
05:20	75.6	75.6	77.0	74	66.7	0	0	---	0.00	29.765 
05:25	75.4	75.4	76.6	75	66.9	0	0	---	0.00	29.765 
05:30	75.3	75.3	76.3	77	67.6	0	0	---	0.00	29.758 
05:35	75.3	75.3	76.2	78	68.0	0	0	---	0.00	29.758 
05:40	75.3	75.3	76.1	79	68.3	0	1	248	0.00	29.758 
05:45	75.3	75.3	76.0	80	68.7	0	1	248	0.00	29.757 
05:50	75.1	75.1	75.7	80	68.5	0	0	---	0.00	29.757 
05:55	75.1	75.1	75.7	80	68.5	0	0	---	0.00	29.757 
06:00	74.9	74.9	74.9	81	68.7	0	0	---	0.00	29.766 
06:05	74.9	74.9	74.9	80	68.3	0	0	---	0.00	29.766 
06:10	75.1	75.1	75.7	80	68.5	0	0	---	0.00	29.766 
06:15	75.1	75.1	75.7	80	68.5	0	0	---	0.00	29.767 
06:20	75.3	75.3	75.9	81	69.1	0	0	---	0.00	29.767 
06:25	75.6	75.6	76.2	82	69.7	0	0	---	0.00	29.767 
06:30	76.0	76.0	76.8	82	70.1	0	1	248	0.00	29.781 
06:35	76.1	76.1	77.1	81	69.8	0	0	---	0.00	29.781 
06:40	76.5	76.5	77.7	81	70.2	0	1	248	0.00	29.781 
06:45	76.7	76.7	78.0	81	70.4	0	1	248	0.00	29.786 
06:50	77.0	77.0	78.5	81	70.7	1	2	248	0.00	29.786 
06:55	77.2	77.2	78.9	81	70.9	1	3	248	0.00	29.786 
07:00	77.6	77.6	79.6	82	71.7	1	3	248	0.00	29.802 
07:05	77.7	77.7	79.8	84	72.5	2	4	248	0.06	29.802 
07:10	75.6	75.6	75.9	85	70.8	1	5	315	0.06	29.802 
07:15	74.6	74.6	74.6	88	70.8	1	3	315	0.00	29.821 
07:20	74.0	74.0	74.0	89	70.5	0	1	315	0.00	29.821 
07:25	73.7	73.7	73.7	90	70.6	0	1	315	0.00	29.821 
07:30	73.3	73.3	73.3	91	70.5	0	1	315	0.00	29.803 
07:35	73.2	73.2	73.2	92	70.7	0	1	315	0.00	29.803 
07:40	73.2	73.2	73.2	92	70.7	0	0	---	0.00	29.803 
07:45	73.0	73.0	73.0	92	70.5	0	1	315	0.00	29.810 
07:50	73.0	73.0	73.0	93	70.8	0	0	---	0.00	29.810 
07:55	73.0	73.0	73.0	93	70.8	0	0	---	0.00	29.810 
08:00	73.0	73.0	73.0	93	70.8	0	1	315	0.00	29.809 
08:05	73.0	73.0	73.0	93	70.8	0	0	---	0.00	29.809 
08:10	73.0	73.0	73.0	93	70.8	0	0	---	0.00	29.809 
08:15	73.0	73.0	73.0	93	70.8	0	1	315	0.00	29.802 
08:20	73.0	73.0	73.0	93	70.8	0	1	315	0.00	29.802 
08:25	73.0	73.0	73.0	93	70.8	0	1	315	0.00	29.802 
08:30	73.0	73.0	73.0	93	70.8	1	3	248	0.00	29.818 
08:35	72.8	72.8	72.8	93	70.7	1	3	248	0.01	29.818 
08:40	72.7	72.7	72.7	93	70.6	1	4	248	0.01	29.818 
08:45	72.5	72.5	72.5	92	70.0	1	5	248	0.03	29.821 
08:50	72.3	72.3	72.3	92	69.8	1	4	248	0.05	29.821 
08:55	72.1	72.1	72.1	92	69.6	0	1	248	0.01	29.821 
09:00	72.1	72.1	72.1	93	70.0	0	1	248	0.00	29.809 
09:05	72.1	72.1	72.1	93	70.0	1	2	248	0.01	29.809 
09:10	72.1	72.1	72.1	94	70.3	1	2	248	0.00	29.809 
09:15	72.1	72.1	72.1	94	70.3	0	2	248	0.00	29.829 
09:20	72.3	72.3	72.3	94	70.5	0	1	248	0.00	29.829 
09:25	72.3	72.3	72.3	94	70.5	1	2	248	0.01	29.829 
09:30	72.3	72.3	72.3	94	70.5	0	3	270	0.00	29.835 
09:35	72.5	72.5	72.5	94	70.7	1	3	270	0.00	29.835 
09:40	72.5	72.5	72.5	94	70.7	0	2	270	0.00	29.835 
09:45	72.7	72.7	72.7	94	70.9	1	2	270	0.01	29.843 
09:50	72.7	72.7	72.7	94	70.9	1	3	270	0.00	29.843 
09:55	72.8	72.8	72.8	94	71.0	0	2	270	0.00	29.843 
10:00	72.8	72.8	72.8	94	71.0	0	1	270	0.00	29.834 
10:05	72.8	72.8	72.8	94	71.0	1	3	22	0.02	29.834 
10:10	72.8	72.8	72.8	94	71.0	1	2	22	0.01	29.834 
10:15	73.0	73.0	73.0	94	71.2	0	2	0	0.00	29.819 
10:20	73.0	73.0	73.0	94	71.2	0	1	0	0.00	29.819 
10:25	73.3	73.3	73.3	94	71.5	0	1	0	0.00	29.819 
10:30	73.9	73.9	73.9	94	72.1	0	1	0	0.00	29.803 
10:35	74.6	74.6	74.6	95	73.1	0	1	0	0.00	29.803 
10:40	74.9	74.9	74.9	94	73.0	1	2	0	0.00	29.803 
10:45	75.4	75.4	74.2	94	73.5	1	3	248	0.00	29.803 
10:50	76.1	76.1	75.9	93	73.9	1	2	248	0.00	29.803 
10:55	76.5	76.5	76.9	92	74.0	1	3	248	0.00	29.803 
11:00	76.5	76.5	77.2	88	72.7	2	4	248	0.00	29.814 
11:05	76.5	76.5	77.2	88	72.7	2	4	270	0.00	29.814 
11:10	76.7	76.7	77.7	88	72.9	1	3	270	0.00	29.814 
11:15	76.5	76.5	77.3	87	72.3	2	5	248	0.00	29.815 
11:20	76.7	76.7	77.7	88	72.9	1	3	248	0.00	29.815 
11:25	76.8	76.8	77.9	88	73.0	1	3	248	0.00	29.815 
11:30	77.0	77.0	78.3	87	72.8	1	3	248	0.00	29.808 
11:35	77.4	77.4	79.1	87	73.2	1	3	248	0.00	29.808 
11:40	77.7	77.7	79.8	84	72.5	1	2	270	0.00	29.808 
11:45	77.9	77.9	80.2	84	72.7	1	4	270	0.00	29.808 
11:50	78.1	78.1	80.6	84	72.9	1	3	270	0.00	29.808 
11:55	78.1	78.1	80.6	84	72.9	1	2	270	0.00	29.808 
12:00	78.3	78.3	81.0	83	72.7	1	3	270	0.00	29.813 
12:05	78.1	78.1	80.6	84	72.9	1	3	270	0.00	29.813 
12:10	78.1	78.1	80.6	83	72.5	0	2	270	0.00	29.813 
12:15	78.3	78.3	81.0	84	73.1	0	1	270	0.00	29.815 
12:20	78.3	78.3	81.0	83	72.7	1	2	270	0.00	29.815 
12:25	77.7	77.7	79.8	84	72.5	2	4	248	0.00	29.815 
12:30	77.2	77.2	78.8	85	72.3	3	6	248	0.00	29.856 
12:35	76.8	76.8	78.0	86	72.3	2	5	270	0.01	29.856 
12:40	76.3	76.3	76.8	88	72.5	2	6	248	0.00	29.856 
12:45	76.1	76.1	76.4	89	72.6	1	3	248	0.00	29.851 
12:50	75.8	75.8	75.8	89	72.3	1	3	270	0.01	29.851 
12:55	75.8	75.8	75.6	90	72.6	1	2	180	0.02	29.851 
13:00	75.8	75.8	75.5	91	73.0	0	2	180	0.00	29.822 
13:05	76.0	76.0	75.8	92	73.5	1	3	180	0.00	29.822 
13:10	76.0	76.0	75.9	91	73.2	2	4	90	0.00	29.822 
13:15	76.1	76.1	76.0	92	73.6	1	2	112	0.00	29.821 
13:20	76.3	76.3	76.5	92	73.8	1	3	248	0.00	29.821 
13:25	76.5	76.5	77.0	91	73.7	1	4	112	0.00	29.821 
13:30	76.8	76.8	77.7	91	74.0	1	3	90	0.00	29.815 
13:35	76.8	76.8	77.8	89	73.3	1	3	68	0.00	29.815 
13:40	77.2	77.2	78.7	88	73.4	1	3	248	0.00	29.815 
13:45	77.4	77.4	79.2	84	72.2	2	5	248	0.00	29.819 
13:50	77.7	77.7	79.8	84	72.5	1	3	248	0.00	29.819 
13:55	77.7	77.7	79.8	84	72.5	2	3	270	0.00	29.819 
14:00	77.6	77.6	79.6	81	71.3	2	5	270	0.00	29.833 
14:05	78.1	78.1	80.5	81	71.8	2	4	248	0.00	29.833 
14:10	78.8	78.8	81.9	82	72.8	1	3	248	0.00	29.833 
14:15	79.4	79.4	82.7	77	71.5	2	4	248	0.00	29.821 
14:20	79.0	79.0	82.0	77	71.2	3	5	248	0.00	29.821 
14:25	79.0	79.0	82.1	79	71.9	2	5	248	0.00	29.821 
14:30	78.8	78.8	81.6	77	71.0	3	6	248	0.00	29.819 
14:35	78.8	78.8	81.6	77	71.0	2	4	270	0.00	29.819 
14:40	79.0	79.0	82.0	77	71.2	1	4	248	0.00	29.819 
14:45	79.0	79.0	81.8	75	70.4	2	4	270	0.00	29.812 
14:50	79.2	79.2	82.1	75	70.6	2	4	248	0.00	29.812 
14:55	79.4	79.4	82.4	74	70.4	1	3	248	0.00	29.812 
15:00	79.4	79.4	82.3	73	70.0	2	4	292	0.00	29.804 
15:05	79.6	79.6	82.6	73	70.2	2	4	270	0.00	29.804 
15:10	79.8	79.8	82.9	72	69.9	2	4	270	0.00	29.804 
15:15	79.9	79.9	83.0	72	70.0	2	4	270	0.00	29.802 
15:20	79.9	79.9	82.9	71	69.6	2	4	270	0.00	29.802 
15:25	80.1	80.1	83.1	70	69.4	3	5	270	0.00	29.802 
15:30	80.3	80.3	83.6	71	70.0	2	4	248	0.00	29.802 
15:35	80.7	80.7	84.4	72	70.8	2	5	292	0.00	29.802 
15:40	80.9	80.9	84.6	71	70.6	2	5	248	0.00	29.802 
15:45	81.2	81.2	85.0	70	70.5	1	4	292	0.00	29.795 
15:50	81.8	81.8	85.9	69	70.6	2	4	270	0.00	29.795 
15:55	82.2	82.2	86.4	68	70.6	2	5	248	0.00	29.795 
16:00	82.4	82.4	86.7	68	70.8	3	5	270	0.00	29.792 
16:05	82.4	82.4	86.5	67	70.3	2	5	248	0.00	29.792 
16:10	82.4	82.4	86.1	65	69.4	3	4	270	0.00	29.792 
16:15	82.4	82.4	86.1	65	69.4	2	5	270	0.00	29.802 
16:20	82.6	82.6	86.4	65	69.6	2	5	270	0.00	29.802 
16:25	82.6	82.6	86.4	65	69.6	2	4	270	0.00	29.802 
16:30	82.4	82.4	85.8	64	69.0	2	4	270	0.00	29.803 
16:35	82.4	82.4	86.1	65	69.4	2	5	270	0.00	29.803 
16:40	82.2	82.2	85.7	65	69.2	2	5	270	0.00	29.803 
16:45	82.0	82.0	85.4	65	69.0	3	5	270	0.00	29.810 
16:50	82.0	82.0	85.8	67	69.9	2	4	270	0.00	29.810 
16:55	81.8	81.8	85.3	66	69.3	2	4	292	0.00	29.810 
17:00	81.4	81.4	85.1	69	70.2	2	5	270	0.00	29.817 
17:05	81.1	81.1	84.6	69	69.9	2	3	270	0.00	29.817 
17:10	80.7	80.7	84.1	70	70.0	2	4	270	0.00	29.817 
17:15	80.5	80.5	83.9	71	70.2	1	3	270	0.00	29.816 
17:20	80.3	80.3	83.6	71	70.0	1	3	270	0.00	29.816 
17:25	80.3	80.3	83.7	72	70.4	1	3	270	0.00	29.816 
17:30	80.3	80.3	83.7	72	70.4	1	3	248	0.00	29.814 
17:35	80.5	80.5	84.1	72	70.6	1	3	248	0.00	29.814 
17:40	80.5	80.5	84.1	72	70.6	1	3	248	0.00	29.814 
17:45	80.3	80.3	83.7	72	70.4	1	4	270	0.00	29.811 
17:50	80.3	80.3	83.7	72	70.4	1	4	270	0.00	29.811 
17:55	80.3	80.3	83.7	72	70.4	1	2	270	0.00	29.811 
18:00	80.3	80.3	83.9	73	70.8	1	4	248	0.00	29.807 
18:05	80.5	80.5	84.1	72	70.6	1	3	248	0.00	29.807 
18:10	80.9	80.9	84.6	71	70.6	1	3	248	0.00	29.807 
18:15	81.4	81.4	85.1	69	70.2	2	4	315	0.00	29.799 
18:20	81.2	81.2	85.0	70	70.5	2	4	315	0.00	29.799 
18:25	81.2	81.2	85.3	72	71.3	1	3	292	0.00	29.799 
18:30	81.1	81.1	85.2	72	71.2	1	3	292	0.00	29.802 
18:35	80.7	80.7	84.3	71	70.4	1	4	292	0.00	29.802 
18:40	80.3	80.3	83.7	72	70.4	2	5	315	0.00	29.802 
18:45	80.1	80.1	83.6	74	71.0	2	4	270	0.00	29.801 
18:50	80.1	80.1	83.6	74	71.0	2	6	270	0.00	29.801 
18:55	80.1	80.1	83.5	73	70.6	2	5	315	0.00	29.801 
19:00	79.9	79.9	83.1	73	70.4	1	5	315	0.00	29.802 
19:05	79.4	79.4	82.3	73	70.0	2	5	315	0.00	29.802 
19:10	79.0	79.0	81.7	74	70.0	2	5	292	0.00	29.802 
19:15	78.8	78.8	81.5	75	70.2	1	4	292	0.00	29.813 
19:20	78.8	78.8	81.5	76	70.6	1	3	292	0.00	29.813 
19:25	78.8	78.8	81.5	75	70.2	0	2	292	0.00	29.813 
19:30	78.6	78.6	81.1	75	70.0	1	4	270	0.00	29.819 
19:35	78.6	78.6	81.1	75	70.0	2	3	292	0.00	29.819 
19:40	78.6	78.6	81.1	74	69.6	1	4	270	0.00	29.819 
19:45	78.6	78.6	81.0	73	69.2	1	4	270	0.00	29.823 
19:50	78.3	78.3	80.6	74	69.3	2	5	248	0.00	29.823 
19:55	78.1	78.1	80.3	75	69.5	1	3	292	0.00	29.823 
20:00	77.7	77.7	79.7	75	69.1	1	3	315	0.00	29.836 
20:05	77.4	77.4	79.3	76	69.2	1	3	315	0.00	29.836 
20:10	77.0	77.0	78.7	75	68.5	1	3	292	0.00	29.836 
20:15	76.8	76.8	78.4	75	68.3	1	3	292	0.00	29.843 
20:20	76.7	76.7	78.3	75	68.2	1	3	315	0.00	29.843 
20:25	76.5	76.5	78.0	75	68.0	1	3	292	0.00	29.843 
20:30	76.3	76.3	77.7	76	68.2	0	2	292	0.00	29.849 
20:35	76.1	76.1	77.4	77	68.3	0	1	292	0.00	29.849 
20:40	76.0	76.0	77.3	76	67.9	0	1	292	0.00	29.849 
20:45	75.6	75.6	76.7	77	67.9	0	2	292	0.00	29.854 
20:50	75.4	75.4	76.4	77	67.7	0	2	338	0.00	29.854 
20:55	75.1	75.1	76.1	77	67.4	0	2	270	0.00	29.854 
21:00	74.9	74.9	74.9	77	67.2	1	3	292	0.00	29.862 
21:05	74.7	74.7	74.7	77	67.0	0	2	292	0.00	29.862 
21:10	74.6	74.6	74.6	78	67.3	0	2	292	0.00	29.862 
21:15	74.6	74.6	74.6	78	67.3	0	1	292	0.00	29.862 
21:20	74.4	74.4	74.4	79	67.4	0	1	292	0.00	29.862 
21:25	74.4	74.4	74.4	79	67.4	0	1	292	0.00	29.862 
21:30	74.4	74.4	74.4	79	67.4	0	1	292	0.00	29.866 
21:35	74.2	74.2	74.2	80	67.6	0	1	292	0.00	29.866 
21:40	74.0	74.0	74.0	81	67.8	0	1	292	0.00	29.866 
21:45	73.9	73.9	73.9	81	67.7	0	1	292	0.00	29.874 
21:50	73.7	73.7	73.7	81	67.5	0	2	315	0.00	29.874 
21:55	73.3	73.3	73.3	82	67.5	0	2	315	0.00	29.874 
22:00	73.2	73.2	73.2	82	67.4	0	1	315	0.00	29.878 
22:05	73.2	73.2	73.2	83	67.7	0	1	315	0.00	29.878 
22:10	73.2	73.2	73.2	83	67.7	0	0	---	0.00	29.878 
22:15	73.0	73.0	73.0	84	67.9	0	2	315	0.00	29.886 
22:20	73.0	73.0	73.0	84	67.9	0	1	315	0.00	29.886 
22:25	72.7	72.7	72.7	84	67.6	0	2	270	0.00	29.886 
22:30	72.5	72.5	72.5	85	67.7	0	2	270	0.00	29.894 
22:35	72.1	72.1	72.1	85	67.3	1	3	270	0.00	29.894 
22:40	71.8	71.8	71.8	86	67.4	0	2	315	0.00	29.894 
22:45	71.6	71.6	71.6	86	67.2	0	1	270	0.00	29.902 
22:50	71.5	71.5	71.5	86	67.1	0	3	270	0.00	29.902 
22:55	71.3	71.3	71.3	87	67.2	0	1	270	0.00	29.902 
23:00	71.1	71.1	71.1	87	67.0	0	2	270	0.00	29.905 
23:05	70.9	70.9	70.9	87	66.8	0	1	270	0.00	29.905 
23:10	70.8	70.8	70.8	87	66.7	0	1	270	0.00	29.905 
23:15	70.6	70.6	70.6	88	66.9	0	2	270	0.00	29.907 
23:20	70.4	70.4	70.4	88	66.7	0	2	270	0.00	29.907 
23:25	70.3	70.3	70.3	88	66.6	0	1	270	0.00	29.907 
23:30	70.3	70.3	70.3	88	66.6	0	1	270	0.00	29.910 
23:35	69.9	69.9	69.9	88	66.2	0	1	270	0.00	29.910 
23:40	69.8	69.8	69.8	88	66.1	0	1	270	0.00	29.910 
23:45	69.6	69.6	69.6	88	65.9	0	1	270	0.00	29.908 
23:50	69.4	69.4	69.4	89	66.0	0	1	270	0.00	29.908 
23:55	69.3	69.3	69.3	89	65.9	0	1	270	0.00	29.908 

CoCoRaHS
IN-AL-39
A2 Web Hosting
Creative Commons License
GoDaddy
Look for:

loaded 2017-12-12 14:36:17 • last modified 2010-11-18 10:43:29
Privacy PolicyDisclaimer
• wx.awcolley.com is powered by PmWiki v.2002016 •
• all content (unless otherwise noted) © 2017 A W Colley